sensor_id;sensor_type;location;lat;lon;timestamp;P1;durP1;ratioP1;P2;durP2;ratioP2
31526;SDS011;18136;42.236;-73.040;2023-06-04T00:02:24;2.88;;;0.70;;
31526;SDS011;18136;42.236;-73.040;2023-06-04T00:04:50;0.52;;;0.52;;
31526;SDS011;18136;42.236;-73.040;2023-06-04T00:07:16;1.92;;;0.50;;
31526;SDS011;18136;42.236;-73.040;2023-06-04T00:09:43;0.68;;;0.68;;
31526;SDS011;18136;42.236;-73.040;2023-06-04T00:12:12;3.05;;;0.70;;
31526;SDS011;18136;42.236;-73.040;2023-06-04T00:14:38;1.10;;;0.60;;
31526;SDS011;18136;42.236;-73.040;2023-06-04T00:17:04;1.10;;;0.68;;
31526;SDS011;18136;42.236;-73.040;2023-06-04T00:19:30;2.70;;;0.60;;
31526;SDS011;18136;42.236;-73.040;2023-06-04T00:21:58;0.82;;;0.60;;
31526;SDS011;18136;42.236;-73.040;2023-06-04T00:24:25;1.95;;;0.70;;
31526;SDS011;18136;42.236;-73.040;2023-06-04T00:26:51;2.25;;;0.60;;
31526;SDS011;18136;42.236;-73.040;2023-06-04T00:29:17;1.60;;;0.60;;
31526;SDS011;18136;42.236;-73.040;2023-06-04T00:31:43;1.58;;;0.60;;
31526;SDS011;18136;42.236;-73.040;2023-06-04T00:34:10;3.55;;;0.80;;
31526;SDS011;18136;42.236;-73.040;2023-06-04T00:36:36;1.48;;;0.70;;
31526;SDS011;18136;42.236;-73.040;2023-06-04T00:39:02;0.63;;;0.60;;
31526;SDS011;18136;42.236;-73.040;2023-06-04T00:41:28;2.05;;;0.70;;
31526;SDS011;18136;42.236;-73.040;2023-06-04T00:43:54;0.93;;;0.60;;
31526;SDS011;18136;42.236;-73.040;2023-06-04T00:46:27;3.80;;;0.68;;
31526;SDS011;18136;42.236;-73.040;2023-06-04T00:48:54;3.65;;;0.70;;
31526;SDS011;18136;42.236;-73.040;2023-06-04T00:51:21;3.47;;;0.60;;
31526;SDS011;18136;42.236;-73.040;2023-06-04T00:53:49;1.70;;;0.70;;
31526;SDS011;18136;42.236;-73.040;2023-06-04T00:56:16;0.50;;;0.50;;
31526;SDS011;18136;42.236;-73.040;2023-06-04T00:58:43;0.63;;;0.60;;
31526;SDS011;18136;42.236;-73.040;2023-06-04T01:01:15;0.90;;;0.60;;
31526;SDS011;18136;42.236;-73.040;2023-06-04T01:03:49;0.80;;;0.57;;
31526;SDS011;18136;42.236;-73.040;2023-06-04T01:09:04;1.58;;;0.70;;
31526;SDS011;18136;42.236;-73.040;2023-06-04T01:11:33;5.32;;;1.00;;
31526;SDS011;18136;42.236;-73.040;2023-06-04T01:14:03;2.17;;;0.65;;
31526;SDS011;18136;42.236;-73.040;2023-06-04T01:16:41;1.92;;;0.85;;
31526;SDS011;18136;42.236;-73.040;2023-06-04T01:19:22;4.55;;;0.90;;
31526;SDS011;18136;42.236;-73.040;2023-06-04T01:25:06;0.80;;;0.70;;
31526;SDS011;18136;42.236;-73.040;2023-06-04T01:28:05;2.67;;;0.70;;
31526;SDS011;18136;42.236;-73.040;2023-06-04T01:30:32;0.68;;;0.55;;
31526;SDS011;18136;42.236;-73.040;2023-06-04T01:33:12;0.80;;;0.80;;
31526;SDS011;18136;42.236;-73.040;2023-06-04T01:35:39;1.40;;;1.00;;
31526;SDS011;18136;42.236;-73.040;2023-06-04T01:38:06;1.00;;;0.90;;
31526;SDS011;18136;42.236;-73.040;2023-06-04T01:40:32;1.10;;;0.95;;
31526;SDS011;18136;42.236;-73.040;2023-06-04T01:43:00;2.13;;;0.80;;
31526;SDS011;18136;42.236;-73.040;2023-06-04T01:45:27;2.75;;;0.98;;
31526;SDS011;18136;42.236;-73.040;2023-06-04T01:47:53;2.15;;;0.90;;
31526;SDS011;18136;42.236;-73.040;2023-06-04T01:50:20;0.85;;;0.60;;
31526;SDS011;18136;42.236;-73.040;2023-06-04T01:52:46;0.50;;;0.50;;
31526;SDS011;18136;42.236;-73.040;2023-06-04T01:55:16;0.98;;;0.93;;
31526;SDS011;18136;42.236;-73.040;2023-06-04T01:57:43;1.02;;;0.75;;
31526;SDS011;18136;42.236;-73.040;2023-06-04T02:00:11;1.30;;;0.63;;
31526;SDS011;18136;42.236;-73.040;2023-06-04T02:02:38;0.90;;;0.80;;
31526;SDS011;18136;42.236;-73.040;2023-06-04T02:05:06;1.00;;;0.90;;
31526;SDS011;18136;42.236;-73.040;2023-06-04T02:07:36;4.68;;;1.05;;
31526;SDS011;18136;42.236;-73.040;2023-06-04T02:10:05;1.55;;;0.90;;
31526;SDS011;18136;42.236;-73.040;2023-06-04T02:12:38;2.35;;;0.95;;
31526;SDS011;18136;42.236;-73.040;2023-06-04T02:15:06;1.20;;;0.80;;
31526;SDS011;18136;42.236;-73.040;2023-06-04T02:17:36;1.15;;;1.00;;
31526;SDS011;18136;42.236;-73.040;2023-06-04T02:20:07;1.80;;;0.93;;
31526;SDS011;18136;42.236;-73.040;2023-06-04T02:22:34;1.35;;;0.88;;
31526;SDS011;18136;42.236;-73.040;2023-06-04T02:25:00;2.53;;;1.08;;
31526;SDS011;18136;42.236;-73.040;2023-06-04T02:27:26;1.70;;;0.70;;
31526;SDS011;18136;42.236;-73.040;2023-06-04T02:29:53;3.05;;;0.90;;
31526;SDS011;18136;42.236;-73.040;2023-06-04T02:32:19;2.55;;;1.40;;
31526;SDS011;18136;42.236;-73.040;2023-06-04T02:34:45;1.45;;;0.70;;
31526;SDS011;18136;42.236;-73.040;2023-06-04T02:37:11;1.15;;;0.80;;
31526;SDS011;18136;42.236;-73.040;2023-06-04T02:39:37;1.20;;;0.80;;
31526;SDS011;18136;42.236;-73.040;2023-06-04T02:42:03;3.28;;;1.00;;
31526;SDS011;18136;42.236;-73.040;2023-06-04T02:44:30;1.10;;;1.00;;
31526;SDS011;18136;42.236;-73.040;2023-06-04T02:46:56;3.38;;;0.90;;
31526;SDS011;18136;42.236;-73.040;2023-06-04T02:49:22;2.58;;;0.80;;
31526;SDS011;18136;42.236;-73.040;2023-06-04T02:51:48;1.00;;;0.90;;
31526;SDS011;18136;42.236;-73.040;2023-06-04T02:54:14;2.47;;;1.00;;
31526;SDS011;18136;42.236;-73.040;2023-06-04T02:56:42;1.73;;;1.15;;
31526;SDS011;18136;42.236;-73.040;2023-06-04T02:59:09;2.55;;;0.85;;
31526;SDS011;18136;42.236;-73.040;2023-06-04T03:01:35;1.75;;;0.93;;
31526;SDS011;18136;42.236;-73.040;2023-06-04T03:04:01;4.20;;;1.10;;
31526;SDS011;18136;42.236;-73.040;2023-06-04T03:06:29;1.27;;;1.17;;
31526;SDS011;18136;42.236;-73.040;2023-06-04T03:08:57;1.33;;;1.00;;
31526;SDS011;18136;42.236;-73.040;2023-06-04T03:11:23;3.00;;;1.40;;
31526;SDS011;18136;42.236;-73.040;2023-06-04T03:13:50;2.78;;;0.98;;
31526;SDS011;18136;42.236;-73.040;2023-06-04T03:16:18;1.40;;;0.80;;
31526;SDS011;18136;42.236;-73.040;2023-06-04T03:18:45;2.42;;;1.10;;
31526;SDS011;18136;42.236;-73.040;2023-06-04T03:21:14;1.40;;;0.90;;
31526;SDS011;18136;42.236;-73.040;2023-06-04T03:23:40;1.83;;;1.15;;
31526;SDS011;18136;42.236;-73.040;2023-06-04T03:26:06;3.55;;;1.00;;
31526;SDS011;18136;42.236;-73.040;2023-06-04T03:28:33;1.73;;;1.00;;
31526;SDS011;18136;42.236;-73.040;2023-06-04T03:30:59;5.57;;;1.20;;
31526;SDS011;18136;42.236;-73.040;2023-06-04T03:33:25;2.80;;;1.10;;
31526;SDS011;18136;42.236;-73.040;2023-06-04T03:35:51;1.00;;;1.00;;
31526;SDS011;18136;42.236;-73.040;2023-06-04T03:38:18;2.58;;;1.23;;
31526;SDS011;18136;42.236;-73.040;2023-06-04T03:40:45;0.80;;;0.80;;
31526;SDS011;18136;42.236;-73.040;2023-06-04T03:43:11;1.35;;;0.90;;
31526;SDS011;18136;42.236;-73.040;2023-06-04T03:45:37;1.20;;;1.10;;
31526;SDS011;18136;42.236;-73.040;2023-06-04T03:48:04;1.67;;;1.17;;
31526;SDS011;18136;42.236;-73.040;2023-06-04T03:50:31;4.90;;;1.23;;
31526;SDS011;18136;42.236;-73.040;2023-06-04T03:52:57;2.38;;;1.20;;
31526;SDS011;18136;42.236;-73.040;2023-06-04T03:55:23;3.00;;;1.10;;
31526;SDS011;18136;42.236;-73.040;2023-06-04T03:57:49;2.20;;;1.00;;
31526;SDS011;18136;42.236;-73.040;2023-06-04T04:00:15;1.85;;;1.08;;
31526;SDS011;18136;42.236;-73.040;2023-06-04T04:02:42;3.55;;;1.10;;
31526;SDS011;18136;42.236;-73.040;2023-06-04T04:05:08;2.13;;;1.10;;
31526;SDS011;18136;42.236;-73.040;2023-06-04T04:07:36;3.08;;;1.23;;
31526;SDS011;18136;42.236;-73.040;2023-06-04T04:10:02;3.72;;;1.17;;
31526;SDS011;18136;42.236;-73.040;2023-06-04T04:12:29;2.13;;;1.23;;
31526;SDS011;18136;42.236;-73.040;2023-06-04T04:14:56;1.60;;;1.02;;
31526;SDS011;18136;42.236;-73.040;2023-06-04T04:17:22;3.70;;;1.40;;
31526;SDS011;18136;42.236;-73.040;2023-06-04T04:19:49;1.65;;;1.00;;
31526;SDS011;18136;42.236;-73.040;2023-06-04T04:22:15;1.33;;;1.15;;
31526;SDS011;18136;42.236;-73.040;2023-06-04T04:24:45;1.90;;;1.15;;
31526;SDS011;18136;42.236;-73.040;2023-06-04T04:27:11;1.10;;;1.00;;
31526;SDS011;18136;42.236;-73.040;2023-06-04T04:29:38;2.00;;;1.10;;
31526;SDS011;18136;42.236;-73.040;2023-06-04T04:32:04;1.70;;;1.10;;
31526;SDS011;18136;42.236;-73.040;2023-06-04T04:34:35;1.30;;;0.90;;
31526;SDS011;18136;42.236;-73.040;2023-06-04T04:37:16;2.67;;;1.40;;
31526;SDS011;18136;42.236;-73.040;2023-06-04T04:39:46;1.77;;;1.02;;
31526;SDS011;18136;42.236;-73.040;2023-06-04T04:42:12;1.98;;;0.90;;
31526;SDS011;18136;42.236;-73.040;2023-06-04T04:44:38;2.15;;;0.80;;
31526;SDS011;18136;42.236;-73.040;2023-06-04T04:47:04;1.08;;;0.90;;
31526;SDS011;18136;42.236;-73.040;2023-06-04T04:49:30;1.27;;;1.10;;
31526;SDS011;18136;42.236;-73.040;2023-06-04T04:51:56;8.07;;;1.15;;
31526;SDS011;18136;42.236;-73.040;2023-06-04T04:54:22;1.08;;;0.80;;
31526;SDS011;18136;42.236;-73.040;2023-06-04T04:56:48;2.15;;;1.17;;
31526;SDS011;18136;42.236;-73.040;2023-06-04T04:59:14;1.90;;;0.90;;
31526;SDS011;18136;42.236;-73.040;2023-06-04T05:01:40;2.67;;;0.95;;
31526;SDS011;18136;42.236;-73.040;2023-06-04T05:04:06;1.10;;;0.90;;
31526;SDS011;18136;42.236;-73.040;2023-06-04T05:06:32;1.70;;;0.93;;
31526;SDS011;18136;42.236;-73.040;2023-06-04T05:08:58;1.05;;;0.70;;
31526;SDS011;18136;42.236;-73.040;2023-06-04T05:11:24;1.88;;;0.88;;
31526;SDS011;18136;42.236;-73.040;2023-06-04T05:13:50;1.52;;;0.98;;
31526;SDS011;18136;42.236;-73.040;2023-06-04T05:16:17;1.05;;;0.90;;
31526;SDS011;18136;42.236;-73.040;2023-06-04T05:18:45;1.23;;;0.75;;
31526;SDS011;18136;42.236;-73.040;2023-06-04T05:21:11;2.10;;;1.10;;
31526;SDS011;18136;42.236;-73.040;2023-06-04T05:23:38;1.33;;;0.90;;
31526;SDS011;18136;42.236;-73.040;2023-06-04T05:26:04;1.40;;;1.00;;
31526;SDS011;18136;42.236;-73.040;2023-06-04T05:28:31;1.35;;;0.90;;
31526;SDS011;18136;42.236;-73.040;2023-06-04T05:31:00;2.55;;;1.08;;
31526;SDS011;18136;42.236;-73.040;2023-06-04T05:33:26;2.22;;;0.90;;
31526;SDS011;18136;42.236;-73.040;2023-06-04T05:35:53;1.48;;;0.90;;
31526;SDS011;18136;42.236;-73.040;2023-06-04T05:38:20;1.92;;;1.20;;
31526;SDS011;18136;42.236;-73.040;2023-06-04T05:40:51;1.52;;;0.98;;
31526;SDS011;18136;42.236;-73.040;2023-06-04T05:43:18;1.40;;;0.88;;
31526;SDS011;18136;42.236;-73.040;2023-06-04T05:45:44;1.70;;;0.95;;
31526;SDS011;18136;42.236;-73.040;2023-06-04T05:48:11;3.10;;;1.13;;
31526;SDS011;18136;42.236;-73.040;2023-06-04T05:50:37;1.42;;;0.85;;
31526;SDS011;18136;42.236;-73.040;2023-06-04T05:53:03;1.60;;;1.08;;
31526;SDS011;18136;42.236;-73.040;2023-06-04T05:55:30;1.88;;;0.80;;
31526;SDS011;18136;42.236;-73.040;2023-06-04T05:57:56;1.45;;;1.20;;
31526;SDS011;18136;42.236;-73.040;2023-06-04T06:00:22;2.05;;;1.00;;
31526;SDS011;18136;42.236;-73.040;2023-06-04T06:02:51;1.75;;;0.90;;
31526;SDS011;18136;42.236;-73.040;2023-06-04T06:05:18;3.78;;;1.02;;
31526;SDS011;18136;42.236;-73.040;2023-06-04T06:07:48;4.15;;;1.20;;
31526;SDS011;18136;42.236;-73.040;2023-06-04T06:10:14;5.05;;;1.10;;
31526;SDS011;18136;42.236;-73.040;2023-06-04T06:12:40;1.17;;;0.90;;
31526;SDS011;18136;42.236;-73.040;2023-06-04T06:15:07;3.40;;;1.10;;
31526;SDS011;18136;42.236;-73.040;2023-06-04T06:17:33;1.08;;;0.90;;
31526;SDS011;18136;42.236;-73.040;2023-06-04T06:20:00;2.55;;;0.80;;
31526;SDS011;18136;42.236;-73.040;2023-06-04T06:22:31;1.15;;;0.80;;
31526;SDS011;18136;42.236;-73.040;2023-06-04T06:24:57;0.60;;;0.60;;
31526;SDS011;18136;42.236;-73.040;2023-06-04T06:27:24;1.50;;;0.85;;
31526;SDS011;18136;42.236;-73.040;2023-06-04T06:29:50;1.25;;;0.68;;
31526;SDS011;18136;42.236;-73.040;2023-06-04T06:32:16;0.93;;;0.88;;
31526;SDS011;18136;42.236;-73.040;2023-06-04T06:34:42;4.28;;;1.25;;
31526;SDS011;18136;42.236;-73.040;2023-06-04T06:37:08;1.80;;;0.90;;
31526;SDS011;18136;42.236;-73.040;2023-06-04T06:39:37;1.35;;;0.80;;
31526;SDS011;18136;42.236;-73.040;2023-06-04T06:42:03;2.03;;;1.00;;
31526;SDS011;18136;42.236;-73.040;2023-06-04T06:44:30;2.50;;;0.70;;
31526;SDS011;18136;42.236;-73.040;2023-06-04T06:46:56;1.48;;;0.90;;
31526;SDS011;18136;42.236;-73.040;2023-06-04T06:49:22;1.52;;;0.80;;
31526;SDS011;18136;42.236;-73.040;2023-06-04T06:51:48;0.98;;;0.90;;
31526;SDS011;18136;42.236;-73.040;2023-06-04T06:54:14;1.00;;;1.00;;
31526;SDS011;18136;42.236;-73.040;2023-06-04T06:56:41;0.80;;;0.80;;
31526;SDS011;18136;42.236;-73.040;2023-06-04T06:59:07;0.80;;;0.70;;
31526;SDS011;18136;42.236;-73.040;2023-06-04T07:01:33;0.80;;;0.80;;
31526;SDS011;18136;42.236;-73.040;2023-06-04T07:04:00;1.67;;;1.00;;
31526;SDS011;18136;42.236;-73.040;2023-06-04T07:06:26;4.13;;;1.35;;
31526;SDS011;18136;42.236;-73.040;2023-06-04T07:08:52;3.75;;;0.95;;
31526;SDS011;18136;42.236;-73.040;2023-06-04T07:11:19;3.05;;;1.10;;
31526;SDS011;18136;42.236;-73.040;2023-06-04T07:13:47;1.77;;;0.85;;
31526;SDS011;18136;42.236;-73.040;2023-06-04T07:16:13;3.33;;;1.05;;
31526;SDS011;18136;42.236;-73.040;2023-06-04T07:18:39;1.33;;;1.00;;
31526;SDS011;18136;42.236;-73.040;2023-06-04T07:21:05;1.83;;;1.08;;
31526;SDS011;18136;42.236;-73.040;2023-06-04T07:23:31;1.65;;;0.93;;
31526;SDS011;18136;42.236;-73.040;2023-06-04T07:25:57;1.42;;;0.98;;
31526;SDS011;18136;42.236;-73.040;2023-06-04T07:28:23;1.80;;;1.00;;
31526;SDS011;18136;42.236;-73.040;2023-06-04T07:30:50;1.30;;;1.10;;
31526;SDS011;18136;42.236;-73.040;2023-06-04T07:33:16;4.72;;;1.10;;
31526;SDS011;18136;42.236;-73.040;2023-06-04T07:35:42;1.38;;;0.90;;
31526;SDS011;18136;42.236;-73.040;2023-06-04T07:38:08;2.35;;;0.98;;
31526;SDS011;18136;42.236;-73.040;2023-06-04T07:40:34;1.02;;;0.82;;
31526;SDS011;18136;42.236;-73.040;2023-06-04T07:43:00;3.05;;;1.17;;
31526;SDS011;18136;42.236;-73.040;2023-06-04T07:45:26;1.35;;;1.00;;
31526;SDS011;18136;42.236;-73.040;2023-06-04T07:47:54;1.17;;;0.90;;
31526;SDS011;18136;42.236;-73.040;2023-06-04T07:50:20;1.48;;;1.10;;
31526;SDS011;18136;42.236;-73.040;2023-06-04T07:52:47;1.58;;;1.15;;
31526;SDS011;18136;42.236;-73.040;2023-06-04T07:55:13;1.75;;;1.10;;
31526;SDS011;18136;42.236;-73.040;2023-06-04T07:57:39;1.98;;;1.02;;
31526;SDS011;18136;42.236;-73.040;2023-06-04T08:00:05;1.35;;;1.00;;
31526;SDS011;18136;42.236;-73.040;2023-06-04T08:02:34;3.92;;;1.27;;
31526;SDS011;18136;42.236;-73.040;2023-06-04T08:05:00;1.15;;;1.00;;
31526;SDS011;18136;42.236;-73.040;2023-06-04T08:07:27;2.63;;;1.00;;
31526;SDS011;18136;42.236;-73.040;2023-06-04T08:09:54;1.40;;;1.10;;
31526;SDS011;18136;42.236;-73.040;2023-06-04T08:12:21;4.22;;;1.52;;
31526;SDS011;18136;42.236;-73.040;2023-06-04T08:14:47;1.08;;;0.98;;
31526;SDS011;18136;42.236;-73.040;2023-06-04T08:17:15;1.20;;;1.10;;
31526;SDS011;18136;42.236;-73.040;2023-06-04T08:19:41;3.08;;;1.25;;
31526;SDS011;18136;42.236;-73.040;2023-06-04T08:22:07;2.75;;;1.05;;
31526;SDS011;18136;42.236;-73.040;2023-06-04T08:24:36;1.30;;;1.20;;
31526;SDS011;18136;42.236;-73.040;2023-06-04T08:27:02;1.33;;;1.08;;
31526;SDS011;18136;42.236;-73.040;2023-06-04T08:29:28;1.73;;;1.00;;
31526;SDS011;18136;42.236;-73.040;2023-06-04T08:31:54;1.55;;;1.20;;
31526;SDS011;18136;42.236;-73.040;2023-06-04T08:34:20;1.23;;;1.00;;
31526;SDS011;18136;42.236;-73.040;2023-06-04T08:36:47;2.15;;;0.90;;
31526;SDS011;18136;42.236;-73.040;2023-06-04T08:39:13;1.13;;;1.05;;
31526;SDS011;18136;42.236;-73.040;2023-06-04T08:41:51;2.88;;;0.90;;
31526;SDS011;18136;42.236;-73.040;2023-06-04T08:44:20;1.17;;;0.90;;
31526;SDS011;18136;42.236;-73.040;2023-06-04T08:46:47;1.52;;;0.98;;
31526;SDS011;18136;42.236;-73.040;2023-06-04T08:49:18;1.45;;;1.10;;
31526;SDS011;18136;42.236;-73.040;2023-06-04T08:51:46;1.20;;;1.10;;
31526;SDS011;18136;42.236;-73.040;2023-06-04T08:54:13;1.15;;;1.00;;
31526;SDS011;18136;42.236;-73.040;2023-06-04T08:56:39;1.15;;;1.05;;
31526;SDS011;18136;42.236;-73.040;2023-06-04T08:59:07;1.23;;;1.13;;
31526;SDS011;18136;42.236;-73.040;2023-06-04T09:01:36;1.23;;;1.05;;
31526;SDS011;18136;42.236;-73.040;2023-06-04T09:04:05;1.10;;;1.00;;
31526;SDS011;18136;42.236;-73.040;2023-06-04T09:06:33;1.67;;;0.73;;
31526;SDS011;18136;42.236;-73.040;2023-06-04T09:09:01;1.45;;;1.10;;
31526;SDS011;18136;42.236;-73.040;2023-06-04T09:11:35;1.27;;;0.93;;
31526;SDS011;18136;42.236;-73.040;2023-06-04T09:14:07;1.25;;;1.15;;
31526;SDS011;18136;42.236;-73.040;2023-06-04T09:16:50;1.42;;;1.08;;
31526;SDS011;18136;42.236;-73.040;2023-06-04T09:19:18;1.60;;;1.15;;
31526;SDS011;18136;42.236;-73.040;2023-06-04T09:26:47;1.85;;;0.93;;
31526;SDS011;18136;42.236;-73.040;2023-06-04T09:29:14;1.10;;;1.00;;
31526;SDS011;18136;42.236;-73.040;2023-06-04T09:31:41;1.42;;;1.15;;
31526;SDS011;18136;42.236;-73.040;2023-06-04T09:34:11;1.25;;;0.93;;
31526;SDS011;18136;42.236;-73.040;2023-06-04T09:36:39;3.05;;;1.20;;
31526;SDS011;18136;42.236;-73.040;2023-06-04T09:39:17;1.23;;;1.13;;
31526;SDS011;18136;42.236;-73.040;2023-06-04T09:41:43;2.10;;;1.40;;
31526;SDS011;18136;42.236;-73.040;2023-06-04T09:44:09;2.20;;;1.33;;
31526;SDS011;18136;42.236;-73.040;2023-06-04T09:46:37;1.55;;;1.30;;
31526;SDS011;18136;42.236;-73.040;2023-06-04T09:49:03;1.30;;;1.20;;
31526;SDS011;18136;42.236;-73.040;2023-06-04T09:51:30;1.75;;;1.10;;
31526;SDS011;18136;42.236;-73.040;2023-06-04T09:54:00;2.58;;;1.23;;
31526;SDS011;18136;42.236;-73.040;2023-06-04T09:56:28;1.75;;;1.50;;
31526;SDS011;18136;42.236;-73.040;2023-06-04T09:58:56;1.55;;;1.40;;
31526;SDS011;18136;42.236;-73.040;2023-06-04T10:01:26;1.70;;;1.52;;
31526;SDS011;18136;42.236;-73.040;2023-06-04T10:03:53;1.92;;;1.52;;
31526;SDS011;18136;42.236;-73.040;2023-06-04T10:06:21;1.77;;;1.55;;
31526;SDS011;18136;42.236;-73.040;2023-06-04T10:08:48;2.40;;;1.60;;
31526;SDS011;18136;42.236;-73.040;2023-06-04T10:11:17;1.80;;;1.60;;
31526;SDS011;18136;42.236;-73.040;2023-06-04T10:13:55;2.47;;;1.88;;
31526;SDS011;18136;42.236;-73.040;2023-06-04T10:16:27;3.20;;;2.20;;
31526;SDS011;18136;42.236;-73.040;2023-06-04T10:18:56;2.10;;;1.90;;
31526;SDS011;18136;42.236;-73.040;2023-06-04T10:21:24;5.05;;;2.38;;
31526;SDS011;18136;42.236;-73.040;2023-06-04T10:23:52;2.88;;;2.55;;
31526;SDS011;18136;42.236;-73.040;2023-06-04T10:26:19;4.28;;;2.38;;
31526;SDS011;18136;42.236;-73.040;2023-06-04T10:28:45;4.55;;;2.50;;
31526;SDS011;18136;42.236;-73.040;2023-06-04T10:31:11;2.63;;;2.40;;
31526;SDS011;18136;42.236;-73.040;2023-06-04T10:33:38;4.80;;;2.72;;
31526;SDS011;18136;42.236;-73.040;2023-06-04T10:38:53;4.47;;;2.65;;
31526;SDS011;18136;42.236;-73.040;2023-06-04T10:41:21;2.85;;;2.50;;
31526;SDS011;18136;42.236;-73.040;2023-06-04T10:43:48;10.88;;;2.60;;
31526;SDS011;18136;42.236;-73.040;2023-06-04T10:46:19;4.90;;;2.90;;
31526;SDS011;18136;42.236;-73.040;2023-06-04T10:48:49;4.75;;;2.53;;
31526;SDS011;18136;42.236;-73.040;2023-06-04T10:51:28;3.30;;;3.00;;
31526;SDS011;18136;42.236;-73.040;2023-06-04T10:53:58;3.75;;;2.72;;
31526;SDS011;18136;42.236;-73.040;2023-06-04T10:56:28;4.85;;;2.40;;
31526;SDS011;18136;42.236;-73.040;2023-06-04T10:59:00;3.58;;;2.38;;
31526;SDS011;18136;42.236;-73.040;2023-06-04T11:01:38;2.45;;;2.15;;
31526;SDS011;18136;42.236;-73.040;2023-06-04T11:04:04;5.22;;;3.05;;
31526;SDS011;18136;42.236;-73.040;2023-06-04T11:06:30;2.92;;;2.58;;
31526;SDS011;18136;42.236;-73.040;2023-06-04T11:09:01;3.28;;;2.53;;
31526;SDS011;18136;42.236;-73.040;2023-06-04T11:11:31;3.40;;;3.10;;
31526;SDS011;18136;42.236;-73.040;2023-06-04T11:14:07;4.28;;;2.65;;
31526;SDS011;18136;42.236;-73.040;2023-06-04T11:16:34;3.00;;;2.70;;
31526;SDS011;18136;42.236;-73.040;2023-06-04T11:19:00;5.78;;;2.72;;
31526;SDS011;18136;42.236;-73.040;2023-06-04T11:21:27;3.97;;;2.70;;
31526;SDS011;18136;42.236;-73.040;2023-06-04T11:23:57;4.18;;;2.92;;
31526;SDS011;18136;42.236;-73.040;2023-06-04T11:26:31;5.40;;;2.60;;
31526;SDS011;18136;42.236;-73.040;2023-06-04T11:28:57;5.55;;;2.72;;
31526;SDS011;18136;42.236;-73.040;2023-06-04T11:31:24;3.85;;;2.55;;
31526;SDS011;18136;42.236;-73.040;2023-06-04T11:33:50;3.03;;;2.70;;
31526;SDS011;18136;42.236;-73.040;2023-06-04T11:36:29;8.85;;;2.78;;
31526;SDS011;18136;42.236;-73.040;2023-06-04T11:39:02;5.15;;;2.90;;
31526;SDS011;18136;42.236;-73.040;2023-06-04T11:44:01;4.38;;;2.70;;
31526;SDS011;18136;42.236;-73.040;2023-06-04T11:46:30;4.03;;;2.95;;
31526;SDS011;18136;42.236;-73.040;2023-06-04T11:49:18;6.53;;;3.03;;
31526;SDS011;18136;42.236;-73.040;2023-06-04T11:51:48;5.20;;;2.50;;
31526;SDS011;18136;42.236;-73.040;2023-06-04T11:54:16;3.70;;;2.40;;
31526;SDS011;18136;42.236;-73.040;2023-06-04T11:56:43;2.75;;;2.50;;
31526;SDS011;18136;42.236;-73.040;2023-06-04T11:59:11;7.03;;;3.00;;
31526;SDS011;18136;42.236;-73.040;2023-06-04T12:01:39;5.78;;;2.58;;
31526;SDS011;18136;42.236;-73.040;2023-06-04T12:04:17;6.85;;;2.72;;
31526;SDS011;18136;42.236;-73.040;2023-06-04T12:06:53;2.88;;;2.47;;
31526;SDS011;18136;42.236;-73.040;2023-06-04T12:09:22;3.17;;;2.80;;
31526;SDS011;18136;42.236;-73.040;2023-06-04T12:11:57;4.65;;;2.60;;
31526;SDS011;18136;42.236;-73.040;2023-06-04T12:14:27;4.45;;;2.80;;
31526;SDS011;18136;42.236;-73.040;2023-06-04T12:19:25;2.80;;;2.33;;
31526;SDS011;18136;42.236;-73.040;2023-06-04T12:22:02;3.10;;;2.80;;
31526;SDS011;18136;42.236;-73.040;2023-06-04T12:24:30;4.18;;;2.65;;
31526;SDS011;18136;42.236;-73.040;2023-06-04T12:27:03;5.03;;;3.05;;
31526;SDS011;18136;42.236;-73.040;2023-06-04T12:29:32;4.07;;;2.90;;
31526;SDS011;18136;42.236;-73.040;2023-06-04T12:32:01;4.85;;;3.50;;
31526;SDS011;18136;42.236;-73.040;2023-06-04T12:34:35;3.55;;;2.90;;
31526;SDS011;18136;42.236;-73.040;2023-06-04T12:37:01;6.50;;;3.30;;
31526;SDS011;18136;42.236;-73.040;2023-06-04T12:39:28;5.00;;;3.17;;
31526;SDS011;18136;42.236;-73.040;2023-06-04T12:41:55;3.17;;;2.67;;
31526;SDS011;18136;42.236;-73.040;2023-06-04T12:44:21;3.00;;;2.70;;
31526;SDS011;18136;42.236;-73.040;2023-06-04T12:46:47;5.30;;;2.67;;
31526;SDS011;18136;42.236;-73.040;2023-06-04T12:49:13;7.22;;;2.85;;
31526;SDS011;18136;42.236;-73.040;2023-06-04T12:51:39;2.83;;;2.47;;
31526;SDS011;18136;42.236;-73.040;2023-06-04T12:54:05;5.72;;;2.88;;
31526;SDS011;18136;42.236;-73.040;2023-06-04T12:56:31;5.05;;;3.03;;
31526;SDS011;18136;42.236;-73.040;2023-06-04T12:58:58;3.05;;;2.72;;
31526;SDS011;18136;42.236;-73.040;2023-06-04T13:01:24;4.22;;;2.97;;
31526;SDS011;18136;42.236;-73.040;2023-06-04T13:03:50;6.80;;;2.83;;
31526;SDS011;18136;42.236;-73.040;2023-06-04T13:06:16;4.10;;;2.65;;
31526;SDS011;18136;42.236;-73.040;2023-06-04T13:08:42;3.72;;;2.53;;
31526;SDS011;18136;42.236;-73.040;2023-06-04T13:11:08;6.50;;;2.85;;
31526;SDS011;18136;42.236;-73.040;2023-06-04T13:13:35;4.90;;;2.90;;
31526;SDS011;18136;42.236;-73.040;2023-06-04T13:16:02;7.45;;;2.97;;
31526;SDS011;18136;42.236;-73.040;2023-06-04T13:18:29;6.55;;;2.88;;
31526;SDS011;18136;42.236;-73.040;2023-06-04T13:20:55;5.70;;;2.83;;
31526;SDS011;18136;42.236;-73.040;2023-06-04T13:23:21;6.35;;;2.55;;
31526;SDS011;18136;42.236;-73.040;2023-06-04T13:25:48;9.32;;;2.88;;
31526;SDS011;18136;42.236;-73.040;2023-06-04T13:28:14;18.42;;;3.47;;
31526;SDS011;18136;42.236;-73.040;2023-06-04T13:30:42;4.60;;;2.90;;
31526;SDS011;18136;42.236;-73.040;2023-06-04T13:33:08;3.03;;;2.58;;
31526;SDS011;18136;42.236;-73.040;2023-06-04T13:35:34;7.85;;;2.75;;
31526;SDS011;18136;42.236;-73.040;2023-06-04T13:38:02;5.88;;;3.25;;
31526;SDS011;18136;42.236;-73.040;2023-06-04T13:40:33;4.32;;;2.60;;
31526;SDS011;18136;42.236;-73.040;2023-06-04T13:43:00;8.10;;;2.75;;
31526;SDS011;18136;42.236;-73.040;2023-06-04T13:45:26;4.65;;;2.63;;
31526;SDS011;18136;42.236;-73.040;2023-06-04T13:47:52;4.25;;;2.70;;
31526;SDS011;18136;42.236;-73.040;2023-06-04T13:50:19;4.50;;;2.70;;
31526;SDS011;18136;42.236;-73.040;2023-06-04T13:52:45;4.20;;;2.95;;
31526;SDS011;18136;42.236;-73.040;2023-06-04T13:55:13;4.30;;;2.75;;
31526;SDS011;18136;42.236;-73.040;2023-06-04T13:57:40;5.20;;;2.70;;
31526;SDS011;18136;42.236;-73.040;2023-06-04T14:00:06;3.63;;;2.78;;
31526;SDS011;18136;42.236;-73.040;2023-06-04T14:02:33;3.53;;;2.60;;
31526;SDS011;18136;42.236;-73.040;2023-06-04T14:04:59;5.72;;;2.75;;
31526;SDS011;18136;42.236;-73.040;2023-06-04T14:07:25;4.18;;;2.90;;
31526;SDS011;18136;42.236;-73.040;2023-06-04T14:09:51;8.30;;;2.78;;
31526;SDS011;18136;42.236;-73.040;2023-06-04T14:12:20;6.70;;;2.90;;
31526;SDS011;18136;42.236;-73.040;2023-06-04T14:14:47;6.57;;;3.33;;
31526;SDS011;18136;42.236;-73.040;2023-06-04T14:17:13;3.92;;;3.20;;
31526;SDS011;18136;42.236;-73.040;2023-06-04T14:19:39;6.30;;;3.22;;
31526;SDS011;18136;42.236;-73.040;2023-06-04T14:22:06;4.45;;;3.17;;
31526;SDS011;18136;42.236;-73.040;2023-06-04T14:24:32;4.38;;;3.28;;
31526;SDS011;18136;42.236;-73.040;2023-06-04T14:26:58;14.32;;;3.33;;
31526;SDS011;18136;42.236;-73.040;2023-06-04T14:29:25;7.13;;;3.40;;
31526;SDS011;18136;42.236;-73.040;2023-06-04T14:31:51;5.18;;;3.15;;
31526;SDS011;18136;42.236;-73.040;2023-06-04T14:34:17;4.22;;;2.92;;
31526;SDS011;18136;42.236;-73.040;2023-06-04T14:36:43;3.65;;;2.60;;
31526;SDS011;18136;42.236;-73.040;2023-06-04T14:39:09;4.22;;;2.60;;
31526;SDS011;18136;42.236;-73.040;2023-06-04T14:41:36;3.20;;;2.40;;
31526;SDS011;18136;42.236;-73.040;2023-06-04T14:44:02;4.35;;;2.60;;